createdAt,value
2023-11-10T00:00:46.950Z,8.39
2023-11-10T00:03:13.741Z,8.42
2023-11-10T00:05:41.892Z,8.47
2023-11-10T00:08:11.211Z,7.16
2023-11-10T00:10:37.908Z,5.72
2023-11-10T00:13:05.161Z,6.45
2023-11-10T00:15:32.045Z,7.89
2023-11-10T00:17:58.764Z,8.18
2023-11-10T00:20:25.385Z,8.33
2023-11-10T00:22:53.711Z,8.36
2023-11-10T00:25:20.387Z,8.39
2023-11-10T00:27:46.996Z,8.38
2023-11-10T00:30:14.629Z,5.53
2023-11-10T00:32:41.303Z,7.38
2023-11-10T00:35:08.810Z,8.20
2023-11-10T00:37:35.781Z,8.32
2023-11-10T00:40:04.277Z,8.19
2023-11-10T00:42:30.909Z,8.27
2023-11-10T00:44:57.640Z,8.30
2023-11-10T00:47:25.181Z,8.31
2023-11-10T00:49:53.404Z,8.33
2023-11-10T00:52:22.182Z,8.35
2023-11-10T00:54:49.465Z,8.03
2023-11-10T00:57:19.069Z,8.30
2023-11-10T00:59:45.816Z,8.33
2023-11-10T01:02:12.484Z,8.33
2023-11-10T01:04:39.220Z,8.35
2023-11-10T01:07:05.882Z,8.35
2023-11-10T01:09:32.498Z,8.33
2023-11-10T01:11:59.735Z,8.32
2023-11-10T01:14:27.798Z,6.10
2023-11-10T01:16:54.476Z,6.36
2023-11-10T01:19:21.197Z,7.88
2023-11-10T01:21:48.389Z,7.61
2023-11-10T01:24:17.713Z,8.04
2023-11-10T01:26:44.357Z,8.16
2023-11-10T01:29:11.034Z,7.58
2023-11-10T01:31:38.937Z,8.15
2023-11-10T01:34:05.603Z,8.03
2023-11-10T01:36:32.344Z,7.07
2023-11-10T01:38:58.980Z,7.99
2023-11-10T01:41:25.630Z,8.13
2023-11-10T01:43:52.261Z,8.18
2023-11-10T01:46:46.532Z,8.24
2023-11-10T01:49:15.781Z,8.23
2023-11-10T01:51:44.078Z,7.28
2023-11-10T01:54:13.729Z,7.87
2023-11-10T01:56:40.522Z,8.14
2023-11-10T01:59:13.594Z,8.15
2023-11-10T02:01:40.378Z,6.52
2023-11-10T02:04:09.984Z,5.30
2023-11-10T02:06:36.518Z,7.54
2023-11-10T02:09:03.159Z,8.04
2023-11-10T02:11:33.385Z,3.74
2023-11-10T02:14:01.893Z,7.36
2023-11-10T02:16:30.203Z,5.13
2023-11-10T02:18:57.350Z,7.17
2023-11-10T02:21:25.509Z,7.72
2023-11-10T02:23:55.641Z,7.88
2023-11-10T02:26:23.678Z,7.34
2023-11-10T02:28:50.316Z,7.80
2023-11-10T02:31:20.790Z,7.93
2023-11-10T02:33:47.772Z,7.94
2023-11-10T02:36:14.831Z,7.98
2023-11-10T02:38:43.453Z,5.61
2023-11-10T02:41:10.730Z,7.08
2023-11-10T02:43:39.165Z,6.92
2023-11-10T02:46:06.353Z,7.69
2023-11-10T02:48:33.231Z,7.86
2023-11-10T02:51:00.183Z,7.82
2023-11-10T02:53:26.854Z,7.63
2023-11-10T02:55:53.461Z,7.85
2023-11-10T02:58:20.162Z,7.86
2023-11-10T03:00:49.023Z,7.89
2023-11-10T03:03:16.257Z,5.83
2023-11-10T03:05:43.239Z,7.32
2023-11-10T03:08:09.988Z,6.83
2023-11-10T03:10:36.645Z,6.08
2023-11-10T03:13:04.406Z,7.50
2023-11-10T03:15:31.222Z,7.72
2023-11-10T03:17:59.504Z,7.79
2023-11-10T03:20:26.155Z,6.06
2023-11-10T03:22:52.802Z,7.48
2023-11-10T03:25:19.562Z,7.71
2023-11-10T03:27:46.306Z,7.72
2023-11-10T03:30:13.306Z,7.60
2023-11-10T03:32:40.283Z,7.71
2023-11-10T03:35:09.073Z,7.78
2023-11-10T03:37:36.316Z,7.79
2023-11-10T03:40:04.019Z,7.79
2023-11-10T03:42:31.648Z,7.78
2023-11-10T03:44:58.692Z,7.81
2023-11-10T03:47:25.388Z,6.26
2023-11-10T03:49:52.142Z,7.40
2023-11-10T03:52:20.187Z,7.74
2023-11-10T03:54:46.911Z,7.80
2023-11-10T03:57:13.751Z,7.78
2023-11-10T03:59:40.744Z,7.79
2023-11-10T04:02:07.851Z,7.55
2023-11-10T04:04:35.197Z,5.28
2023-11-10T04:07:04.993Z,6.93
2023-11-10T04:09:36.726Z,7.54
2023-11-10T04:12:04.399Z,7.66
2023-11-10T04:14:31.138Z,7.68
2023-11-10T04:16:57.737Z,7.68
2023-11-10T04:19:24.439Z,7.19
2023-11-10T04:21:51.116Z,7.64
2023-11-10T04:24:18.518Z,7.67
2023-11-10T04:26:46.951Z,7.69
2023-11-10T04:29:13.909Z,7.71
2023-11-10T04:31:41.800Z,7.71
2023-11-10T04:34:09.109Z,7.72
2023-11-10T04:36:40.540Z,7.75
2023-11-10T04:39:08.790Z,6.42
2023-11-10T04:41:35.527Z,7.49
2023-11-10T04:44:03.781Z,7.62
2023-11-10T04:46:32.006Z,7.21
2023-11-10T04:48:58.675Z,7.39
2023-11-10T04:51:28.860Z,7.57
2023-11-10T04:53:56.007Z,7.61
2023-11-10T04:56:22.647Z,7.63
2023-11-10T04:58:49.512Z,7.65
2023-11-10T05:01:17.636Z,7.69
2023-11-10T05:03:45.281Z,7.69
2023-11-10T05:06:12.280Z,6.92
2023-11-10T05:08:38.940Z,6.86
2023-11-10T05:11:05.934Z,7.51
2023-11-10T05:13:32.542Z,7.60
2023-11-10T05:15:59.456Z,6.83
2023-11-10T05:20:58.702Z,5.63
2023-11-10T05:23:25.396Z,7.24
2023-11-10T05:25:55.072Z,7.42
2023-11-10T05:28:21.561Z,7.32
2023-11-10T05:30:48.830Z,7.51
2023-11-10T05:33:15.519Z,7.59
2023-11-10T05:35:44.217Z,7.57
2023-11-10T05:38:10.888Z,7.60
2023-11-10T05:40:37.500Z,7.59
2023-11-10T05:43:04.156Z,7.58
2023-11-10T05:45:30.912Z,7.59
2023-11-10T05:47:57.593Z,7.59
2023-11-10T05:50:24.415Z,7.57
2023-11-10T05:52:52.395Z,7.59
2023-11-10T05:55:19.626Z,7.61
2023-11-10T05:57:47.440Z,7.57
2023-11-10T06:00:14.747Z,7.55
2023-11-10T06:02:43.086Z,7.59
2023-11-10T06:05:12.297Z,6.04
2023-11-10T06:07:39.985Z,7.32
2023-11-10T06:10:11.410Z,7.49
2023-11-10T06:12:39.144Z,7.56
2023-11-10T06:15:06.506Z,7.60
2023-11-10T06:17:33.207Z,7.35
2023-11-10T06:19:59.833Z,7.53
2023-11-10T06:22:27.153Z,7.49
2023-11-10T06:24:53.820Z,7.51
2023-11-10T06:27:25.015Z,7.49
2023-11-10T06:29:51.904Z,7.52
2023-11-10T06:32:19.419Z,7.50
2023-11-10T06:34:46.177Z,7.50
2023-11-10T06:37:13.583Z,7.54
2023-11-10T06:39:40.690Z,7.52
2023-11-10T06:42:07.923Z,7.54
2023-11-10T06:44:35.947Z,7.49
2023-11-10T06:47:02.742Z,7.18
2023-11-10T06:49:29.824Z,7.45
2023-11-10T06:51:56.672Z,7.50
2023-11-10T06:54:26.024Z,7.49
2023-11-10T06:56:54.473Z,7.48
2023-11-10T06:59:24.445Z,7.53
2023-11-10T07:01:52.479Z,7.49
2023-11-10T07:04:23.111Z,7.46
2023-11-10T07:06:49.828Z,7.45
2023-11-10T07:09:16.849Z,7.47
2023-11-10T07:11:43.527Z,7.44
2023-11-10T07:14:10.131Z,7.45
2023-11-10T07:16:37.731Z,7.46
2023-11-10T07:19:07.114Z,7.43
2023-11-10T07:21:33.765Z,7.43
2023-11-10T07:24:01.060Z,7.46
2023-11-10T07:26:30.533Z,7.48
2023-11-10T07:29:00.274Z,7.55
2023-11-10T07:31:26.741Z,7.55
2023-11-10T07:33:53.385Z,7.55
2023-11-10T07:36:21.375Z,8.16
2023-11-10T07:38:48.051Z,8.57
2023-11-10T07:41:14.678Z,7.93
2023-11-10T07:43:41.367Z,8.24
2023-11-10T07:46:08.206Z,9.37
2023-11-10T07:48:36.999Z,8.04
2023-11-10T07:51:04.748Z,7.76
2023-11-10T07:53:32.946Z,9.09
2023-11-10T07:56:00.524Z,7.75
2023-11-10T07:58:29.798Z,7.59
2023-11-10T08:00:56.508Z,7.63
2023-11-10T08:03:23.330Z,7.73
2023-11-10T08:05:52.217Z,10.76
2023-11-10T08:08:19.081Z,11.15
2023-11-10T08:10:48.520Z,11.51
2023-11-10T08:13:18.466Z,10.80
2023-11-10T08:15:47.190Z,12.04
2023-11-10T08:18:15.692Z,11.94
2023-11-10T08:20:43.839Z,14.19
2023-11-10T08:23:11.154Z,13.11
2023-11-10T08:25:37.861Z,13.55
2023-11-10T08:28:08.618Z,10.74
2023-11-10T08:30:35.322Z,10.91
2023-11-10T08:33:02.132Z,13.42
2023-11-10T08:35:29.084Z,11.68
2023-11-10T08:37:55.791Z,11.51
2023-11-10T08:40:25.217Z,10.20
2023-11-10T08:42:51.876Z,9.96
2023-11-10T08:45:20.374Z,9.89
2023-11-10T08:47:47.155Z,11.60
2023-11-10T08:50:14.281Z,9.19
2023-11-10T08:52:43.005Z,8.65
2023-11-10T08:55:11.797Z,8.57
2023-11-10T08:57:39.937Z,8.32
2023-11-10T09:00:10.122Z,8.32
2023-11-10T09:02:38.669Z,8.42
2023-11-10T09:05:06.449Z,8.47
2023-11-10T09:07:36.934Z,10.05
2023-11-10T09:10:03.832Z,9.16
2023-11-10T09:12:31.786Z,9.95
2023-11-10T09:14:59.037Z,9.22
2023-11-10T09:17:25.780Z,9.80
2023-11-10T09:19:53.768Z,10.01
2023-11-10T09:22:21.051Z,10.10
2023-11-10T09:24:48.413Z,10.07
2023-11-10T09:27:15.195Z,9.97
2023-11-10T09:29:42.642Z,9.90
2023-11-10T09:32:12.240Z,9.55
2023-11-10T09:34:38.979Z,9.26
2023-11-10T09:37:07.659Z,9.78
2023-11-10T09:39:34.570Z,10.06
2023-11-10T09:42:07.521Z,8.87
2023-11-10T09:44:37.997Z,8.78
2023-11-10T09:47:05.373Z,8.62
2023-11-10T09:49:32.437Z,8.96
2023-11-10T09:52:02.014Z,8.99
2023-11-10T09:54:32.870Z,9.26
2023-11-10T09:56:59.629Z,9.30
2023-11-10T09:59:28.830Z,10.31
2023-11-10T10:01:55.639Z,10.40
2023-11-10T10:04:22.449Z,10.47
2023-11-10T10:06:53.814Z,9.94
2023-11-10T10:09:20.479Z,10.07
2023-11-10T10:11:48.621Z,10.68
2023-11-10T10:14:15.560Z,11.16
2023-11-10T10:16:52.323Z,11.21
2023-11-10T10:19:24.176Z,10.61
2023-11-10T10:21:53.502Z,9.97
2023-11-10T10:24:23.386Z,13.26
2023-11-10T10:26:52.485Z,13.66
2023-11-10T10:29:19.556Z,11.28
2023-11-10T10:31:46.843Z,13.95
2023-11-10T10:34:13.994Z,13.54
2023-11-10T10:36:40.672Z,13.51
2023-11-10T10:39:11.943Z,11.11
2023-11-10T10:41:40.774Z,9.91
2023-11-10T10:44:10.962Z,10.99
2023-11-10T10:46:39.330Z,9.88
2023-11-10T10:49:08.095Z,9.59
2023-11-10T10:51:39.362Z,10.87
2023-11-10T10:54:07.861Z,10.10
2023-11-10T10:56:44.278Z,10.00
2023-11-10T10:59:14.026Z,9.83
2023-11-10T11:01:43.022Z,9.50
2023-11-10T11:04:27.896Z,9.48
2023-11-10T11:07:12.195Z,9.23
2023-11-10T11:10:00.060Z,9.61
2023-11-10T11:12:57.941Z,9.77
2023-11-10T11:15:34.299Z,9.59
2023-11-10T11:18:33.684Z,9.81
2023-11-10T11:21:00.730Z,9.26
2023-11-10T11:23:28.044Z,9.60
2023-11-10T11:25:59.355Z,10.38
2023-11-10T11:28:27.583Z,10.31
2023-11-10T11:31:09.630Z,10.17
2023-11-10T11:33:44.123Z,9.58
2023-11-10T11:36:15.166Z,9.32
2023-11-10T11:38:43.188Z,9.78
2023-11-10T11:41:12.976Z,9.30
2023-11-10T11:43:48.512Z,9.24
2023-11-10T11:46:19.513Z,9.36
2023-11-10T11:48:49.619Z,9.29
2023-11-10T11:51:19.239Z,9.14
2023-11-10T11:53:45.879Z,9.03
2023-11-10T11:56:14.200Z,9.08
2023-11-10T11:58:40.962Z,9.01
2023-11-10T12:01:08.678Z,9.07
2023-11-10T12:03:36.827Z,9.09
2023-11-10T12:06:05.154Z,9.17
2023-11-10T12:08:31.841Z,9.27
2023-11-10T12:10:58.542Z,9.30
2023-11-10T12:13:27.750Z,9.25
2023-11-10T12:15:55.904Z,9.35
2023-11-10T12:18:26.178Z,9.36
2023-11-10T12:20:54.455Z,9.48
2023-11-10T12:23:21.488Z,9.24
2023-11-10T12:25:49.974Z,8.97
2023-11-10T12:28:16.655Z,9.13
2023-11-10T12:30:43.788Z,9.21
2023-11-10T12:33:11.401Z,9.23
2023-11-10T12:35:40.489Z,9.20
2023-11-10T12:38:11.322Z,9.35
2023-11-10T12:40:40.756Z,9.42
2023-11-10T12:43:09.213Z,9.55
2023-11-10T12:45:36.086Z,9.29
2023-11-10T12:48:12.971Z,9.23
2023-11-10T12:50:39.765Z,9.25
2023-11-10T12:53:09.573Z,9.43
2023-11-10T12:55:36.451Z,9.24
2023-11-10T12:58:05.816Z,9.12
2023-11-10T13:00:36.408Z,9.23
2023-11-10T13:03:04.526Z,9.35
2023-11-10T13:05:31.906Z,9.46
2023-11-10T13:07:58.687Z,9.00
2023-11-10T13:10:32.409Z,9.10
2023-11-10T13:12:59.031Z,9.23
2023-11-10T13:15:26.037Z,9.27
2023-11-10T13:17:52.766Z,9.25
2023-11-10T13:20:22.973Z,9.45
2023-11-10T13:22:50.331Z,9.31
2023-11-10T13:25:18.974Z,9.24
2023-11-10T13:27:47.207Z,9.24
2023-11-10T13:30:15.242Z,9.33
2023-11-10T13:32:43.125Z,8.99
2023-11-10T13:35:11.173Z,9.08
2023-11-10T13:37:38.075Z,8.80
2023-11-10T13:40:13.649Z,8.82
2023-11-10T13:42:41.728Z,8.97
2023-11-10T13:45:12.290Z,9.16
2023-11-10T13:47:40.142Z,8.70
2023-11-10T13:50:08.332Z,8.92
2023-11-10T13:52:35.007Z,9.12
2023-11-10T13:55:01.690Z,9.15
2023-11-10T13:57:34.439Z,9.20
2023-11-10T14:00:01.332Z,9.04
2023-11-10T14:02:29.578Z,9.01
2023-11-10T14:04:56.248Z,9.07
2023-11-10T14:07:23.752Z,9.19
2023-11-10T14:09:50.753Z,9.29
2023-11-10T14:12:17.509Z,9.16
2023-11-10T14:14:45.900Z,9.16
2023-11-10T14:17:12.616Z,8.89
2023-11-10T14:19:40.710Z,9.14
2023-11-10T14:22:07.858Z,9.17
2023-11-10T14:24:34.673Z,9.25
2023-11-10T14:27:02.787Z,9.27
2023-11-10T14:29:29.616Z,9.27
2023-11-10T14:31:57.266Z,9.20
2023-11-10T14:34:29.146Z,9.19
2023-11-10T14:37:00.058Z,9.21
2023-11-10T14:39:27.238Z,9.25
2023-11-10T14:41:56.834Z,9.24
2023-11-10T14:44:24.303Z,9.25
2023-11-10T14:46:51.255Z,9.27
2023-11-10T14:49:20.204Z,9.24
2023-11-10T14:51:56.822Z,9.21
2023-11-10T14:54:24.858Z,9.23
2023-11-10T14:56:51.942Z,9.22
2023-11-10T14:59:18.620Z,9.02
2023-11-10T15:01:49.009Z,9.18
2023-11-10T15:04:21.280Z,9.20
2023-11-10T15:06:48.456Z,9.13
2023-11-10T15:09:15.329Z,8.90
2023-11-10T15:11:45.458Z,8.46
2023-11-10T15:14:12.355Z,8.97
2023-11-10T15:16:46.566Z,8.88
2023-11-10T15:19:13.970Z,8.95
2023-11-10T15:21:40.645Z,8.81
2023-11-10T15:24:09.756Z,8.66
2023-11-10T15:26:38.251Z,8.16
2023-11-10T15:29:06.410Z,8.24
2023-11-10T15:31:36.533Z,8.94
2023-11-10T15:34:04.488Z,8.80
2023-11-10T15:36:31.361Z,8.63
2023-11-10T15:39:09.738Z,8.86
2023-11-10T15:41:42.654Z,9.09
2023-11-10T15:44:10.861Z,8.12
2023-11-10T15:46:42.032Z,8.79
2023-11-10T15:49:11.579Z,8.61
2023-11-10T15:51:49.180Z,8.87
2023-11-10T15:54:22.766Z,9.06
2023-11-10T15:56:50.178Z,7.35
2023-11-10T15:59:20.582Z,8.13
2023-11-10T16:01:47.345Z,8.70
2023-11-10T16:04:14.373Z,8.03
2023-11-10T16:06:41.186Z,8.14
2023-11-10T16:09:08.871Z,8.83
2023-11-10T16:11:35.541Z,9.03
2023-11-10T16:14:02.825Z,8.95
2023-11-10T16:16:30.986Z,8.75
2023-11-10T16:18:57.963Z,8.47
2023-11-10T16:21:24.683Z,8.84
2023-11-10T16:23:51.567Z,9.00
2023-11-10T16:26:18.974Z,9.05
2023-11-10T16:28:45.982Z,9.05
2023-11-10T16:31:12.698Z,9.06
2023-11-10T16:33:41.630Z,9.05
2023-11-10T16:36:09.044Z,9.07
2023-11-10T16:38:35.713Z,9.11
2023-11-10T16:41:03.526Z,9.07
2023-11-10T16:43:32.744Z,9.05
2023-11-10T16:46:00.080Z,9.08
2023-11-10T16:48:26.828Z,9.09
2023-11-10T16:50:54.794Z,9.06
2023-11-10T16:53:21.406Z,9.08
2023-11-10T16:55:48.032Z,9.07
2023-11-10T16:58:14.752Z,9.06
2023-11-10T17:00:43.004Z,9.04
2023-11-10T17:03:11.327Z,9.07
2023-11-10T17:05:41.283Z,9.07
2023-11-10T17:08:09.310Z,9.10
2023-11-10T17:10:36.891Z,9.10
2023-11-10T17:13:05.057Z,9.07
2023-11-10T17:15:31.686Z,9.04
2023-11-10T17:17:58.394Z,9.05
2023-11-10T17:20:25.104Z,9.07
2023-11-10T17:22:51.751Z,9.06
2023-11-10T17:25:20.347Z,9.06
2023-11-10T17:27:47.693Z,9.01
2023-11-10T17:30:14.791Z,9.02
2023-11-10T17:32:42.649Z,9.02
2023-11-10T17:35:09.320Z,9.03
2023-11-10T17:37:35.963Z,9.04
2023-11-10T17:40:03.551Z,8.99
2023-11-10T17:42:37.568Z,8.99
2023-11-10T17:45:04.996Z,8.97
2023-11-10T17:47:34.745Z,8.98
2023-11-10T17:50:01.905Z,9.00
2023-11-10T17:52:28.631Z,8.97
2023-11-10T17:54:55.247Z,8.97
2023-11-10T17:57:23.450Z,8.61
2023-11-10T17:59:51.379Z,8.93
2023-11-10T18:02:18.043Z,8.52
2023-11-10T18:04:52.208Z,8.88
2023-11-10T18:07:22.605Z,8.95
2023-11-10T18:09:50.311Z,8.93
2023-11-10T18:12:17.037Z,8.89
2023-11-10T18:14:44.911Z,8.95
2023-11-10T18:17:13.165Z,8.95
2023-11-10T18:19:41.767Z,8.87
2023-11-10T18:22:08.425Z,8.92
2023-11-10T18:24:36.724Z,8.87
2023-11-10T18:27:06.683Z,8.85
2023-11-10T18:29:36.075Z,8.85
2023-11-10T18:32:02.998Z,8.84
2023-11-10T18:34:31.074Z,8.84
2023-11-10T18:36:57.787Z,8.83
2023-11-10T18:39:24.720Z,8.80
2023-11-10T18:41:54.315Z,8.81
2023-11-10T18:44:21.075Z,8.79
2023-11-10T18:46:47.853Z,8.79
2023-11-10T18:49:14.591Z,8.80
2023-11-10T18:51:42.736Z,8.82
2023-11-10T18:54:11.145Z,8.75
2023-11-10T18:56:37.811Z,8.79
2023-11-10T18:59:04.658Z,8.75
2023-11-10T19:01:31.442Z,8.73
2023-11-10T19:04:00.737Z,8.25
2023-11-10T19:06:28.903Z,8.13
2023-11-10T19:08:56.915Z,8.61
2023-11-10T19:11:23.563Z,8.68
2023-11-10T19:13:51.434Z,8.65
2023-11-10T19:16:18.622Z,8.67
2023-11-10T19:18:45.522Z,8.66
2023-11-10T19:21:12.390Z,8.65
2023-11-10T19:23:39.051Z,8.68
2023-11-10T19:26:08.502Z,8.66
2023-11-10T19:28:35.196Z,8.64
2023-11-10T19:31:01.910Z,8.60
2023-11-10T19:33:28.844Z,8.64
2023-11-10T19:35:55.829Z,8.68
2023-11-10T19:38:23.061Z,8.63
2023-11-10T19:40:49.804Z,8.58
2023-11-10T19:43:18.313Z,8.56
2023-11-10T19:45:45.036Z,8.56
2023-11-10T19:48:13.553Z,8.60
2023-11-10T19:50:40.146Z,8.61
2023-11-10T19:53:06.750Z,7.98
2023-11-10T19:55:39.628Z,8.50
2023-11-10T20:03:10.079Z,8.47
2023-11-10T20:05:36.854Z,7.80
2023-11-10T20:08:03.652Z,8.34
2023-11-10T20:10:30.484Z,8.44
2023-11-10T20:12:57.085Z,8.29
2023-11-10T20:15:24.368Z,7.76
2023-11-10T20:17:52.487Z,8.34
2023-11-10T20:20:22.477Z,8.40
2023-11-10T20:22:49.630Z,8.45
2023-11-10T20:25:16.388Z,8.12
2023-11-10T20:27:43.093Z,8.36
2023-11-10T20:30:14.670Z,8.41
2023-11-10T20:32:42.084Z,8.24
2023-11-10T20:35:10.439Z,8.38
2023-11-10T20:37:37.086Z,8.38
2023-11-10T20:40:10.931Z,8.42
2023-11-10T20:42:37.887Z,8.36
2023-11-10T20:45:05.804Z,8.33
2023-11-10T20:47:32.632Z,8.34
2023-11-10T20:49:59.377Z,8.42
2023-11-10T20:52:27.384Z,8.38
2023-11-10T20:54:54.117Z,8.35
2023-11-10T20:57:20.912Z,8.45
2023-11-10T20:59:47.566Z,8.36
2023-11-10T21:02:15.135Z,8.28
2023-11-10T21:04:41.867Z,4.56
2023-11-10T21:07:10.099Z,6.46
2023-11-10T21:09:39.146Z,7.84
2023-11-10T21:12:06.924Z,8.03
2023-11-10T21:14:33.613Z,8.08
2023-11-10T21:17:00.472Z,8.12
2023-11-10T21:19:27.300Z,8.07
2023-11-10T21:21:54.784Z,8.07
2023-11-10T21:24:21.507Z,8.11
2023-11-10T21:26:50.527Z,8.14
2023-11-10T21:29:17.256Z,8.05
2023-11-10T21:31:43.899Z,8.08
2023-11-10T21:34:10.621Z,8.13
2023-11-10T21:36:38.793Z,8.06
2023-11-10T21:39:06.922Z,8.06
2023-11-10T21:41:35.991Z,8.06
2023-11-10T21:44:04.310Z,8.12
2023-11-10T21:46:31.543Z,8.03
2023-11-10T21:48:58.183Z,8.02
2023-11-10T21:51:24.864Z,7.76
2023-11-10T21:53:51.484Z,8.02
2023-11-10T21:56:18.892Z,7.98
2023-11-10T21:58:45.654Z,8.00
2023-11-10T22:01:17.224Z,7.97
2023-11-10T22:03:44.620Z,7.97
2023-11-10T22:06:11.825Z,8.02
2023-11-10T22:08:38.863Z,8.06
2023-11-10T22:11:06.008Z,8.00
2023-11-10T22:13:32.879Z,7.94
2023-11-10T22:15:59.520Z,7.93
2023-11-10T22:18:27.589Z,7.89
2023-11-10T22:20:54.205Z,5.77
2023-11-10T22:23:20.965Z,7.63
2023-11-10T22:25:47.920Z,7.81
2023-11-10T22:28:14.557Z,7.83
2023-11-10T22:30:41.327Z,7.84
2023-11-10T22:33:08.117Z,7.84
2023-11-10T22:35:36.290Z,7.83
2023-11-10T22:38:03.036Z,7.82
2023-11-10T22:40:29.953Z,7.84
2023-11-10T22:42:56.640Z,5.99
2023-11-10T22:45:23.666Z,7.59
2023-11-10T22:47:50.878Z,7.72
2023-11-10T22:50:17.810Z,7.77
2023-11-10T22:52:45.797Z,7.77
2023-11-10T22:55:16.886Z,7.76
2023-11-10T22:57:44.603Z,6.87
2023-11-10T23:00:30.650Z,6.63
2023-11-10T23:02:57.533Z,6.20
2023-11-10T23:05:24.410Z,7.02
2023-11-10T23:07:52.459Z,7.21
2023-11-10T23:10:19.373Z,7.29
2023-11-10T23:12:45.954Z,5.72
2023-11-10T23:15:12.833Z,7.19
2023-11-10T23:17:41.169Z,7.54
2023-11-10T23:20:16.363Z,7.09
2023-11-10T23:22:50.425Z,7.48
2023-11-10T23:25:18.483Z,7.57
2023-11-10T23:27:45.141Z,7.58
2023-11-10T23:30:12.316Z,7.58
2023-11-10T23:32:39.227Z,7.60
2023-11-10T23:35:08.039Z,7.36
2023-11-10T23:37:35.030Z,7.54
2023-11-10T23:40:01.909Z,7.53
2023-11-10T23:42:32.306Z,7.55
2023-11-10T23:44:59.020Z,7.53
2023-11-10T23:47:25.707Z,7.51
2023-11-10T23:49:54.975Z,7.54
2023-11-10T23:52:21.604Z,7.52
2023-11-10T23:54:48.227Z,7.53
2023-11-10T23:57:16.410Z,7.64
2023-11-10T23:59:44.495Z,7.56
